Latest Coastal Weather Observations for Esperance

IDW60701

Issued at 3:32 am WST Monday 6 July 2015 (issued every 10 minutes, with the page automatically refreshed every 10 minutes)

About coastal observations | Map of coastal stations | Coastal observations for WA | Marine services | Other Formats
Station Details ID: 009789 Name: ESPERANCE Lat: -33.83 Lon: 121.89 Height: 25.0 m
Data from the previous 72 hours. | See also: Recent months at Esperance
Date/Time
WST
Temp

°C
Wind Pressure Rain
since 9am
mm
Weather Cloud Vis
km
Sea
Height
m
Swell
Dir
 
Speed
knots
Gust
knots
hPa Trend Height
m
Period
s
Dir
06/03:30am 7.8 NW 5 6 1020.8 - 0.0 - - 10 - - - -
06/03:00am 8.5 N 7 7 1020.8 R 0.0 - - 10 - - - -
06/02:30am 8.4 N 6 7 1020.9 - 0.0 - Partly cloudy 10 - - - -
06/02:00am 8.8 N 6 7 1020.9 - 0.0 - - 10 - - - -
06/01:30am 9.5 N 5 6 1020.9 - 0.0 - - 10 - - - -
06/01:00am 9.9 N 5 6 1021.1 - 0.0 - Partly cloudy 10 - - - -
06/12:30am 10.6 N 6 7 1021.0 - 0.0 - Partly cloudy 10 - - - -
06/12:00am 11.0 N 5 6 1021.1 F 0.0 - Mostly cloudy 10 - - - -
 
Date/Time
WST
Temp

°C
Wind Pressure Rain
since 9am
mm
Weather Cloud Vis
km
Sea
Height
m
Swell
Dir
 
Speed
knots
Gust
knots
hPa Trend Height
m
Period
s
Dir
05/11:30pm 11.6 N 3 5 1021.3 - 0.0 - Partly cloudy 10 - - - -
05/11:00pm 11.6 N 6 8 1021.6 - 0.0 - Partly cloudy 10 - - - -
05/10:30pm 11.4 N 5 6 1021.6 - 0.0 - Partly cloudy 10 - - - -
05/10:00pm 11.0 NNE 5 5 1021.7 - 0.0 - Cloudy 10 - - - -
05/09:30pm 11.0 N 5 7 1021.5 - 0.0 - Cloudy 10 - - - -
05/09:00pm 11.0 N 5 6 1021.7 R 0.0 - Mostly cloudy 10 - - - -
05/08:30pm 10.7 N 5 6 1021.7 - 0.0 - Cloudy 10 - - - -
05/08:00pm 10.3 N 5 6 1021.7 - 0.0 - Cloudy 10 - - - -
05/07:30pm 10.1 N 5 6 1021.5 - 0.0 - Mostly clear 10 - - - -
05/07:00pm 11.2 N 1 4 1021.3 - 0.0 - Mostly clear 10 - - - -
05/06:30pm 12.0 N 4 5 1021.1 - 0.0 - - 10 - - - -
05/06:00pm 13.8 CALM 0 0 1020.7 F 0.0 Fine Mostly clear 25 - - - -
05/05:30pm 14.2 SW 3 3 1020.5 - 0.0 - - 10 - - - -
05/05:00pm 14.8 SW 4 5 1020.4 - 0.0 - Partly cloudy 10 - - - -
05/04:30pm 15.6 WSW 4 6 1020.4 - 0.0 - Mostly clear 10 - - - -
05/04:00pm 16.7 WSW 4 5 1020.3 - 0.0 - Mostly clear 10 - - - -
05/03:30pm 16.1 SSW 6 8 1020.1 - 0.0 - Mostly clear 10 - - - -
05/03:00pm 16.2 S 6 9 1019.9 R 0.0 Fine Partly cloudy 25 - - - -
05/02:30pm 16.4 SSW 6 11 1019.7 - 0.0 - Mostly clear 10 - - - -
05/02:00pm 16.7 SSW 7 9 1019.7 - 0.0 - Mostly clear 10 - - - -
05/01:30pm 16.6 SSW 7 10 1019.8 - 0.0 - Mostly clear 10 - - - -
05/01:00pm 16.6 SSW 8 12 1019.8 - 0.0 - Mostly clear 10 - - - -
05/12:30pm 16.2 SSW 9 15 1020.1 - 0.0 - Mostly clear 10 - - - -
05/12:00pm 16.5 SSW 9 13 1020.3 R 0.0 Distant precip. Mostly cloudy 20 - - - -
05/11:30am 16.4 SSW 9 15 1020.6 - 0.0 - Mostly clear 10 - - - -
05/11:00am 16.9 SSW 9 14 1020.9 - 0.0 - Mostly clear 10 - - - -
05/10:30am 16.4 SSW 9 12 1020.9 - 0.0 - Mostly clear 10 - - - -
05/10:00am 15.7 SSW 8 14 1020.8 - 0.0 - Mostly clear 10 - - - -
05/09:30am 14.6 SSW 7 10 1020.7 - 0.0 - Mostly clear 10 - - - -
05/09:00am 13.8 SW 5 9 1020.4 R 0.6 Drizzle Mostly cloudy 20 - - - -
05/08:30am 12.3 WNW 5 8 1020.2 - 0.6 Drizzle Mostly clear 10 - - - -
05/08:00am 11.5 NW 6 8 1019.9 - 0.6 - Mostly clear 10 - - - -
05/07:30am 11.1 WNW 9 14 1019.7 - 0.6 Drizzle Partly cloudy 5 - - - -
05/07:00am 11.2 WNW 10 13 1019.3 - 0.2 - Mostly clear 7 - - - -
05/06:46am 11.0 WNW 9 12 1019.0 - 0.0 Showers Mostly clear 5 - - - -
05/06:34am 11.1 WNW 10 14 1018.8 - 0.0 - Partly cloudy 7 - - - -
05/06:30am 11.4 WNW 10 14 1018.8 - 0.0 - Mostly clear 10 - - - -
05/06:00am 11.2 WNW 11 15 1018.4 F 0.0 Fine Partly cloudy 25 - - - -
05/05:30am 11.1 WNW 11 15 1018.3 - 0.0 - Partly cloudy 10 - - - -
05/05:00am 11.2 WNW 11 15 1018.0 - 0.0 - Partly cloudy 10 - - - -
05/04:30am 11.3 WNW 10 14 1018.0 - 0.0 - Partly cloudy 10 - - - -
05/04:00am 11.2 WNW 9 12 1018.1 - 0.0 - - 10 - - - -
05/03:30am 11.4 WNW 10 13 1018.1 - 0.0 - - 10 - - - -
05/03:00am 11.5 WNW 9 14 1018.2 R 0.0 - - 10 - - - -
05/02:30am 11.7 WNW 9 14 1018.3 - 0.0 - - 10 - - - -
05/02:00am 11.5 WNW 9 13 1018.3 - 0.0 - - 10 - - - -
05/01:30am 11.6 NW 8 12 1018.3 - 0.0 - - 10 - - - -
05/01:00am 11.3 NW 8 11 1018.4 - 0.0 - - 10 - - - -
05/12:30am 11.4 NW 8 12 1018.4 - 0.0 - Partly cloudy 10 - - - -
05/12:00am 11.9 NW 8 11 1018.5 F 0.0 - Partly cloudy 10 - - - -
 
Date/Time
WST
Temp

°C
Wind Pressure Rain
since 9am
mm
Weather Cloud Vis
km
Sea
Height
m
Swell
Dir
 
Speed
knots
Gust
knots
hPa Trend Height
m
Period
s
Dir
04/11:30pm 11.7 N 2 6 1018.6 - 0.0 - Partly cloudy 10 - - - -
04/11:00pm 10.8 N 5 8 1018.7 - 0.0 - - 9 - - - -
04/10:30pm 10.7 N 6 6 1018.8 - 0.0 - - 9 - - - -
04/10:00pm 10.8 N 6 7 1018.9 - 0.0 - - 8 - - - -
04/09:30pm 10.9 NNW 4 5 1019.2 - 0.0 - Partly cloudy 9 - - - -
04/09:00pm 11.0 NW 2 5 1019.5 F 0.0 - Partly cloudy 8 - - - -
04/08:30pm 11.8 WNW 3 4 1019.6 - 0.0 - Partly cloudy 10 - - - -
04/08:00pm 12.4 NW 4 5 1019.6 - 0.0 - Mostly clear 10 - - - -
04/07:30pm 12.8 NW 4 5 1019.7 - 0.0 - Mostly clear 10 - - - -
04/07:00pm 13.1 NNW 4 5 1019.7 - 0.0 - Mostly clear 10 - - - -
04/06:30pm 13.7 NW 4 5 1019.8 - 0.0 - Mostly clear 10 - - - -
04/06:00pm 14.8 W 5 5 1019.7 F 0.0 Fine Mostly clear 25 - - - -
04/05:30pm 15.1 W 3 4 1019.6 - 0.0 - - 10 - - - -
04/05:00pm 15.5 WSW 5 7 1019.3 - 0.0 - Mostly clear 10 - - - -
04/04:30pm 16.2 W 5 7 1019.3 - 0.0 - Mostly clear 10 - - - -
04/04:00pm 16.8 WSW 7 11 1019.6 - 0.0 - Mostly clear 10 - - - -
04/03:30pm 17.7 WSW 6 8 1019.4 - 0.0 - Mostly clear 10 - - - -
04/03:00pm 17.5 W 6 10 1019.5 F 0.0 Fine Mostly cloudy 20 - - - -
04/02:30pm 17.2 WSW 6 9 1019.4 - 0.0 - Mostly clear 10 - - - -
04/02:00pm 17.8 WSW 6 10 1019.4 - 0.0 - Mostly clear 10 - - - -
04/01:30pm 18.1 W 8 12 1019.6 - 0.0 - Mostly clear 10 - - - -
04/01:00pm 18.1 W 8 13 1019.9 - 0.0 - Partly cloudy 10 - - - -
04/12:30pm 17.9 WNW 9 12 1020.3 - 0.0 - Partly cloudy 10 - - - -
04/12:00pm 17.6 W 8 13 1020.7 F 0.0 Fine Mostly cloudy 20 - - - -
04/11:30am 17.2 WNW 10 13 1021.1 - 0.0 - Mostly clear 10 - - - -
04/11:17am 17.0 NW 9 12 1021.3 - 0.0 - Partly cloudy 10 - - - -
04/11:00am 16.5 WNW 9 14 1021.6 - 0.0 - Mostly clear 10 - - - -
04/10:30am 15.6 WNW 8 11 1021.8 - 0.0 - Mostly clear 10 - - - -
04/10:00am 14.5 NW 8 11 1022.0 - 0.0 - Mostly clear 10 - - - -
04/09:30am 14.1 NW 8 10 1022.0 - 0.0 - Mostly clear 10 - - - -
04/09:00am 13.5 WNW 7 9 1021.9 F 0.2 Distant precip. Mostly cloudy 18 - - - -
04/08:30am 13.3 NW 6 8 1021.7 - 0.2 - Mostly clear 10 - - - -
04/08:00am 12.2 WNW 4 6 1021.7 - 0.2 - Mostly clear 10 - - - -
04/07:30am 11.4 NW 5 6 1021.5 - 0.2 - Partly cloudy 10 - - - -
04/07:00am 10.9 NW 5 6 1021.5 - 0.2 - Partly cloudy 10 - - - -
04/06:30am 11.2 NW 6 7 1021.4 - 0.2 - Mostly clear 10 - - - -
04/06:00am 10.8 WNW 6 7 1021.3 F 0.2 Fine Partly cloudy 25 - - - -
04/05:30am 10.5 WNW 5 6 1020.9 - 0.2 - - 10 - - - -
04/05:00am 11.0 WNW 6 7 1020.9 - 0.2 - - 10 - - - -
04/04:30am 10.9 WNW 5 7 1020.9 - 0.2 - - 10 - - - -
04/04:00am 10.6 NW 5 6 1021.1 - 0.2 - Partly cloudy 10 - - - -
04/03:30am 10.9 WNW 7 8 1021.2 - 0.2 - - 10 - - - -
04/03:00am 10.7 W 5 6 1021.2 R 0.2 - - 10 - - - -
04/02:30am 10.6 WNW 3 4 1021.3 - 0.2 - Partly cloudy 10 - - - -
04/02:00am 10.9 W 4 5 1021.3 - 0.2 - - 10 - - - -
04/01:30am 10.7 N 4 5 1021.2 - 0.2 - - 10 - - - -
04/01:00am 10.9 N 4 5 1021.1 - 0.2 - Partly cloudy 10 - - - -
04/12:30am 10.8 N 5 5 1021.2 - 0.2 - Partly cloudy 10 - - - -
04/12:00am 11.1 NW 4 5 1021.6 F 0.2 - Partly cloudy 10 - - - -
 
Date/Time
WST
Temp

°C
Wind Pressure Rain
since 9am
mm
Weather Cloud Vis
km
Sea
Height
m
Swell
Dir
 
Speed
knots
Gust
knots
hPa Trend Height
m
Period
s
Dir
03/11:30pm 11.5 NNW 3 4 1021.7 - 0.2 - Partly cloudy 10 - - - -
03/11:00pm 11.3 N 4 6 1021.9 - 0.2 - - 10 - - - -
03/10:30pm 11.2 N 5 6 1021.9 - 0.2 - - 10 - - - -
03/10:00pm 11.7 N 5 5 1022.1 - 0.2 - - 10 - - - -
03/09:30pm 12.1 NW 4 4 1022.0 - 0.2 - Partly cloudy 10 - - - -
03/09:00pm 12.1 WNW 3 4 1022.3 S 0.2 - Mostly cloudy 10 - - - -
03/08:30pm 12.9 WNW 4 5 1022.1 - 0.2 - - 10 - - - -
03/08:00pm 12.8 NNW 4 5 1022.1 - 0.2 - Partly cloudy 10 - - - -
03/07:30pm 13.4 N 4 4 1022.0 - 0.2 - - 10 - - - -
03/07:00pm 14.5 NNW 3 4 1022.0 - 0.2 - - 10 - - - -
03/06:30pm 14.7 N 4 4 1021.7 - 0.2 - - 10 - - - -
03/06:00pm 15.4 WNW 3 4 1021.6 R 0.2 Fine Clear 40 - - - -
03/05:30pm 16.7 WSW 3 4 1021.4 - 0.2 - - 10 - - - -
03/05:00pm 16.8 SW 4 6 1021.2 - 0.2 - - 10 - - - -
03/04:30pm 18.0 SW 6 8 1021.1 - 0.2 - - 10 - - - -
03/04:00pm 19.0 SW 5 8 1020.8 - 0.2 - Mostly clear 10 - - - -
03/03:30pm 19.6 SW 5 7 1020.8 - 0.2 - Mostly clear 10 - - - -
03/03:00pm 20.3 WSW 4 6 1020.4 S 0.2 Fine Mostly clear 40 - - - -
03/02:30pm 20.8 NW 7 9 1020.3 - 0.2 - Mostly clear 10 - - - -
03/02:00pm 20.9 NW 9 11 1020.3 - 0.2 - Mostly clear 10 - - - -
03/01:30pm 20.8 NW 9 11 1020.5 - 0.0 - Mostly clear 10 - - - -
03/01:00pm 20.4 WNW 10 12 1020.7 - 0.0 - Mostly clear 10 - - - -
03/12:30pm 20.1 WNW 11 15 1021.0 - 0.0 - - 10 - - - -
03/12:00pm 19.6 WNW 12 15 1021.3 F 0.0 Fine Mostly clear 40 - - - -
03/11:30am 19.1 NW 13 17 1021.8 - 0.0 - - 10 - - - -
03/11:00am 18.9 NW 12 15 1022.2 - 0.0 - - 10 - - - -
03/10:30am 18.1 NW 11 14 1022.5 - 0.0 - - 10 - - - -
03/10:00am 17.3 NW 9 13 1022.8 - 0.0 - - 10 - - - -
03/09:30am 16.6 NW 8 12 1022.9 - 0.0 - - 10 - - - -
03/09:00am 14.5 NNW 6 9 1023.1 F 1.4 Fine Mostly cloudy 40 - - - -
03/08:30am 13.6 NNW 5 7 1023.0 - 1.4 - Cloudy 10 - - - -
03/08:00am 13.3 NNW 6 9 1023.1 - 1.4 - Partly cloudy 10 - - - -
03/07:30am 12.7 N 5 6 1022.9 - 1.4 - Partly cloudy 10 - - - -
03/07:00am 12.7 N 6 8 1022.8 - 1.4 - Cloudy 10 - - - -
03/06:30am 12.9 N 6 7 1022.5 - 1.4 - Cloudy 10 - - - -
03/06:00am 12.7 N 4 6 1022.6 F 1.4 Fine Cloudy 40 - - - -
03/05:30am 12.7 N 8 11 1022.4 - 1.4 - Cloudy 10 - - - -
03/05:00am 12.9 N 9 12 1022.2 - 1.4 - Cloudy 10 - - - -
03/04:30am 13.1 N 10 15 1022.3 - 1.4 - Partly cloudy 10 - - - -
03/04:00am 13.1 N 10 14 1022.5 - 1.4 - Cloudy 10 - - - -

Other Formats:

Comma delimited format used in spreadsheet applications
http://www.bom.gov.au/fwo/IDW60701/IDW60701.94638.axf

JavaScript Object Notation format (JSON) in row-major order
http://www.bom.gov.au/fwo/IDW60701/IDW60701.94638.json